Time;durP1;ratioP1;P1;durP2;ratioP2;P2;SDS_P1;SDS_P2;PMS_P1;PMS_P2;Temp;Humidity;BMP_temperature;BMP_pressure;BME280_temperature;BME280_humidity;BME280_pressure;Samples;Min_cycle;Max_cycle;Signal;HPM_P1;HPM_P2
2022/12/18 00:01:16;;;;;;;;;;;19.80;46.20;;;;;;5091624;27;44065;-62
2022/12/18 00:03:43;;;;;;;;;;;19.80;46.10;;;;;;5087128;27;43425;-62
2022/12/18 00:06:14;;;;;;;;;;;19.70;46.10;;;;;;5099233;27;43495;-62
2022/12/18 00:08:42;;;;;;;;;;;19.70;46.10;;;;;;5081249;27;43486;-61
2022/12/18 00:11:20;;;;;;;;;;;19.70;46.10;;;;;;5080175;28;44458;-62
2022/12/18 00:13:47;;;;;;;;;;;19.70;46.10;;;;;;5081873;28;43383;-62
2022/12/18 00:16:19;;;;;;;;;;;19.70;46.10;;;;;;5082561;28;43415;-62
2022/12/18 00:18:48;;;;;;;;;;;19.70;46.10;;;;;;5081374;28;43552;-62
2022/12/18 00:21:15;;;;;;;;;;;19.70;46.10;;;;;;5082160;28;43803;-62
2022/12/18 00:23:43;;;;;;;;;;;19.60;46.00;;;;;;5081684;28;43463;-62
2022/12/18 00:26:12;;;;;;;;;;;19.60;46.10;;;;;;5065870;28;43458;-62
2022/12/18 00:28:40;;;;;;;;;;;19.60;46.10;;;;;;5081534;27;43432;-62
2022/12/18 00:31:09;;;;;;;;;;;19.50;46.10;;;;;;5085241;28;43806;-62
2022/12/18 00:33:36;;;;;;;;;;;19.50;46.10;;;;;;5066383;28;43400;-62
2022/12/18 00:36:06;;;;;;;;;;;19.50;46.10;;;;;;5086411;28;43439;-62
2022/12/18 00:38:33;;;;;;;;;;;19.50;46.10;;;;;;5084957;28;43490;-62
2022/12/18 00:41:01;;;;;;;;;;;19.50;46.10;;;;;;5079151;28;44984;-62
2022/12/18 00:43:29;;;;;;;;;;;19.50;46.20;;;;;;5082405;28;43427;-62
2022/12/18 00:45:56;;;;;;;;;;;19.50;46.20;;;;;;5085780;28;43421;-62
2022/12/18 00:48:25;;;;;;;;;;;19.50;46.20;;;;;;5084832;28;44069;-62
2022/12/18 00:50:52;;;;;;;;;;;19.40;46.10;;;;;;5067386;28;44059;-63
2022/12/18 00:53:20;;;;;;;;;;;19.40;46.20;;;;;;5084377;28;43405;-65
2022/12/18 00:55:47;;;;;;;;;;;19.40;46.10;;;;;;5085510;28;43458;-62
2022/12/18 00:58:16;;;;;;;;;;;19.40;46.20;;;;;;5085181;28;43609;-62
2022/12/18 01:00:43;;;;;;;;;;;19.40;46.20;;;;;;5084690;28;43974;-62
2022/12/18 01:03:13;;;;;;;;;;;19.40;46.80;;;;;;5084658;28;43374;-62
2022/12/18 01:05:43;;;;;;;;;;;19.40;46.30;;;;;;5067394;28;43413;-62
2022/12/18 01:08:11;;;;;;;;;;;19.30;46.20;;;;;;5093436;27;43608;-62
2022/12/18 01:10:41;;;;;;;;;;;19.30;46.20;;;;;;5091506;27;43841;-62
2022/12/18 01:13:08;;;;;;;;;;;19.30;46.20;;;;;;5102123;27;43521;-62
2022/12/18 01:15:36;;;;;;;;;;;19.30;46.20;;;;;;5089895;27;43503;-62
2022/12/18 01:18:03;;;;;;;;;;;19.30;46.20;;;;;;5094291;27;43470;-62
2022/12/18 01:20:32;;;;;;;;;;;19.30;46.20;;;;;;5083978;27;44035;-63
2022/12/18 01:22:59;;;;;;;;;;;19.30;46.20;;;;;;5087926;27;43429;-63
2022/12/18 01:25:26;;;;;;;;;;;19.20;46.20;;;;;;5099173;27;43374;-62
2022/12/18 01:27:54;;;;;;;;;;;19.20;46.20;;;;;;5096020;27;43588;-63
2022/12/18 01:30:21;;;;;;;;;;;19.20;46.20;;;;;;5088197;27;43787;-62
2022/12/18 01:32:49;;;;;;;;;;;19.20;46.20;;;;;;5101450;27;43559;-62
2022/12/18 01:35:17;;;;;;;;;;;19.20;46.10;;;;;;5089997;27;43421;-63
2022/12/18 01:37:45;;;;;;;;;;;19.20;46.20;;;;;;5094109;27;43389;-63
2022/12/18 01:40:13;;;;;;;;;;;19.20;46.20;;;;;;5099473;27;43827;-63
2022/12/18 01:42:40;;;;;;;;;;;19.10;46.10;;;;;;5087791;27;43444;-63
2022/12/18 01:45:13;;;;;;;;;;;19.10;46.20;;;;;;5098099;27;43405;-64
2022/12/18 01:47:53;;;;;;;;;;;19.10;46.10;;;;;;5096987;27;43408;-63
2022/12/18 01:50:21;;;;;;;;;;;19.10;46.20;;;;;;5087231;27;43996;-63
2022/12/18 01:52:53;;;;;;;;;;;19.10;46.20;;;;;;5097983;27;43493;-63
2022/12/18 01:55:22;;;;;;;;;;;19.00;46.20;;;;;;5083975;27;43443;-63
2022/12/18 01:57:52;;;;;;;;;;;19.00;46.20;;;;;;5084308;27;43696;-63
2022/12/18 02:00:22;;;;;;;;;;;19.00;46.30;;;;;;5099798;27;44672;-63
2022/12/18 02:02:51;;;;;;;;;;;19.00;46.30;;;;;;5090401;27;43610;-63
2022/12/18 02:05:23;;;;;;;;;;;19.00;46.20;;;;;;5091823;27;43383;-63
2022/12/18 02:08:17;;;;;;;;;;;18.90;46.20;;;;;;5098603;27;43526;-63
2022/12/18 02:10:47;;;;;;;;;;;18.90;46.20;;;;;;5080073;27;44071;-63
2022/12/18 02:13:18;;;;;;;;;;;18.90;46.30;;;;;;5096398;27;43693;-63
2022/12/18 02:15:51;;;;;;;;;;;18.90;46.20;;;;;;5088258;27;43486;-63
2022/12/18 02:18:23;;;;;;;;;;;18.90;46.20;;;;;;5086692;27;43582;-63
2022/12/18 02:20:53;;;;;;;;;;;18.90;46.30;;;;;;5094837;27;44017;-63
2022/12/18 02:23:33;;;;;;;;;;;18.90;46.20;;;;;;5096742;27;44585;-63
2022/12/18 02:26:13;;;;;;;;;;;18.80;46.20;;;;;;5087900;27;43557;-63
2022/12/18 02:28:46;;;;;;;;;;;18.80;46.20;;;;;;5093755;27;43487;-63
2022/12/18 02:31:17;;;;;;;;;;;18.80;46.30;;;;;;5096880;27;43772;-63
2022/12/18 02:33:45;;;;;;;;;;;18.80;46.30;;;;;;5087327;27;43459;-63
2022/12/18 02:36:14;;;;;;;;;;;18.80;46.40;;;;;;5098290;27;43459;-63
2022/12/18 02:38:43;;;;;;;;;;;18.80;46.40;;;;;;5065019;28;43455;-63
2022/12/18 02:41:14;;;;;;;;;;;18.70;46.30;;;;;;5093746;27;44043;-63
2022/12/18 02:43:46;;;;;;;;;;;18.70;46.30;;;;;;5086045;27;43420;-63
2022/12/18 02:46:30;;;;;;;;;;;18.70;46.40;;;;;;5094746;27;43542;-63
2022/12/18 02:49:21;;;;;;;;;;;18.70;46.40;;;;;;5096966;27;43431;-63
2022/12/18 02:51:53;;;;;;;;;;;18.70;46.40;;;;;;5083170;27;44975;-63
2022/12/18 02:54:41;;;;;;;;;;;18.60;46.40;;;;;;5093151;27;43459;-63
2022/12/18 02:57:13;;;;;;;;;;;18.60;46.40;;;;;;5086103;27;43488;-63
2022/12/18 02:59:46;;;;;;;;;;;18.60;46.50;;;;;;5082177;27;43546;-63
2022/12/18 03:02:23;;;;;;;;;;;18.60;46.50;;;;;;5092482;27;43887;-63
2022/12/18 03:05:01;;;;;;;;;;;18.60;46.50;;;;;;5086403;27;43410;-63
2022/12/18 03:07:34;;;;;;;;;;;18.50;46.40;;;;;;5081635;27;43410;-62
2022/12/18 03:10:06;;;;;;;;;;;18.50;46.50;;;;;;5087271;27;43652;-63
2022/12/18 03:12:39;;;;;;;;;;;18.50;46.50;;;;;;5083464;27;43742;-63
2022/12/18 03:15:11;;;;;;;;;;;18.50;46.50;;;;;;5082474;27;43432;-63
2022/12/18 03:17:46;;;;;;;;;;;18.50;46.50;;;;;;5090440;27;43428;-63
2022/12/18 03:20:17;;;;;;;;;;;18.50;46.50;;;;;;5090441;27;43523;-63
2022/12/18 03:22:47;;;;;;;;;;;18.40;46.50;;;;;;5093729;27;43963;-63
2022/12/18 03:25:16;;;;;;;;;;;18.50;46.50;;;;;;5087729;27;43504;-63
2022/12/18 03:27:48;;;;;;;;;;;18.40;46.50;;;;;;5091984;27;43980;-63
2022/12/18 03:30:17;;;;;;;;;;;18.40;46.50;;;;;;5097785;27;43766;-63
2022/12/18 03:32:48;;;;;;;;;;;18.30;46.50;;;;;;5085341;27;44928;-63
2022/12/18 03:35:20;;;;;;;;;;;18.30;46.50;;;;;;5094313;27;43513;-63
2022/12/18 03:37:47;;;;;;;;;;;18.30;46.60;;;;;;5093067;27;43498;-63
2022/12/18 03:40:15;;;;;;;;;;;18.30;46.60;;;;;;5085856;27;43593;-63
2022/12/18 03:42:48;;;;;;;;;;;18.30;46.50;;;;;;5097957;27;45271;-63
2022/12/18 03:45:21;;;;;;;;;;;18.30;46.50;;;;;;5089654;27;43694;-63
2022/12/18 03:47:57;;;;;;;;;;;18.30;47.20;;;;;;5089907;27;43371;-63
2022/12/18 03:50:46;;;;;;;;;;;18.30;46.60;;;;;;5098772;27;43447;-63
2022/12/18 03:53:29;;;;;;;;;;;18.20;46.60;;;;;;5081761;27;44112;-63
2022/12/18 03:55:57;;;;;;;;;;;18.20;46.60;;;;;;5081869;27;43358;-63
2022/12/18 03:58:32;;;;;;;;;;;18.20;47.30;;;;;;5097488;27;43491;-63
2022/12/18 04:01:24;;;;;;;;;;;18.20;46.60;;;;;;5081978;27;43442;-63
2022/12/18 04:03:53;;;;;;;;;;;18.20;46.60;;;;;;5081061;27;43882;-63
2022/12/18 04:06:22;;;;;;;;;;;18.20;46.60;;;;;;5098530;27;43407;-64
2022/12/18 04:08:51;;;;;;;;;;;18.20;46.70;;;;;;5089226;27;43473;-63
2022/12/18 04:11:21;;;;;;;;;;;18.10;46.60;;;;;;5088180;27;43502;-63
2022/12/18 04:13:49;;;;;;;;;;;18.10;46.60;;;;;;5097643;27;43806;-64
2022/12/18 04:16:21;;;;;;;;;;;18.10;46.70;;;;;;5081760;27;43419;-63
2022/12/18 04:18:52;;;;;;;;;;;18.10;46.60;;;;;;5080765;27;43507;-64
2022/12/18 04:21:21;;;;;;;;;;;18.10;46.60;;;;;;5082776;27;43471;-64
2022/12/18 04:23:49;;;;;;;;;;;18.10;46.60;;;;;;5096926;27;43977;-64
2022/12/18 04:26:20;;;;;;;;;;;18.00;46.60;;;;;;5083911;27;43434;-63
2022/12/18 04:29:00;;;;;;;;;;;18.00;46.60;;;;;;5093581;27;43375;-63
2022/12/18 04:31:28;;;;;;;;;;;18.00;46.70;;;;;;5083705;27;43610;-64
2022/12/18 04:33:56;;;;;;;;;;;18.00;46.70;;;;;;5097110;27;44968;-63
2022/12/18 04:36:24;;;;;;;;;;;18.00;46.70;;;;;;5072282;27;43511;-64
2022/12/18 04:38:52;;;;;;;;;;;17.90;46.70;;;;;;5087574;27;43482;-63
2022/12/18 04:41:20;;;;;;;;;;;17.90;46.70;;;;;;5097268;27;43641;-64
2022/12/18 04:43:51;;;;;;;;;;;17.90;46.70;;;;;;5081234;27;44956;-63
2022/12/18 04:46:19;;;;;;;;;;;17.90;46.80;;;;;;5090773;27;43452;-64
2022/12/18 04:48:46;;;;;;;;;;;17.90;46.70;;;;;;5089175;27;43502;-63
2022/12/18 04:51:14;;;;;;;;;;;17.80;46.70;;;;;;5098678;27;43454;-63
2022/12/18 04:53:41;;;;;;;;;;;17.80;46.70;;;;;;5085965;27;43772;-64
2022/12/18 04:56:10;;;;;;;;;;;17.80;46.80;;;;;;5093657;27;43451;-63
2022/12/18 04:58:39;;;;;;;;;;;17.80;46.80;;;;;;5094814;27;43966;-64
2022/12/18 05:01:07;;;;;;;;;;;17.80;46.80;;;;;;5085559;27;43433;-64
2022/12/18 05:03:35;;;;;;;;;;;17.70;46.70;;;;;;5096859;27;43792;-64
2022/12/18 05:06:03;;;;;;;;;;;17.70;46.80;;;;;;5091499;27;43437;-64
2022/12/18 05:08:31;;;;;;;;;;;17.70;46.80;;;;;;5087442;27;43421;-63
2022/12/18 05:11:06;;;;;;;;;;;17.60;46.70;;;;;;5080532;28;43498;-64
2022/12/18 05:13:33;;;;;;;;;;;17.70;46.80;;;;;;5080668;28;44691;-64
2022/12/18 05:16:01;;;;;;;;;;;17.70;46.80;;;;;;5083796;27;43388;-64
2022/12/18 05:18:28;;;;;;;;;;;17.60;46.70;;;;;;5084811;28;43395;-64
2022/12/18 05:20:56;;;;;;;;;;;17.60;46.70;;;;;;5084411;28;43498;-64
2022/12/18 05:23:24;;;;;;;;;;;17.60;46.80;;;;;;5084700;28;43756;-64
2022/12/18 05:25:55;;;;;;;;;;;17.60;46.80;;;;;;5085231;28;43502;-64
2022/12/18 05:28:23;;;;;;;;;;;17.60;46.80;;;;;;5083907;28;43527;-64
2022/12/18 05:30:54;;;;;;;;;;;17.50;46.80;;;;;;5084449;28;43449;-65
2022/12/18 05:33:23;;;;;;;;;;;17.50;46.80;;;;;;5084469;28;43816;-64
2022/12/18 05:35:51;;;;;;;;;;;17.50;46.80;;;;;;5083988;28;43880;-64
2022/12/18 05:38:20;;;;;;;;;;;17.50;46.80;;;;;;5084747;28;43378;-63
2022/12/18 05:40:48;;;;;;;;;;;17.50;46.90;;;;;;5083456;28;43438;-64
2022/12/18 05:43:15;;;;;;;;;;;17.40;46.80;;;;;;5083469;28;43904;-64
2022/12/18 05:45:47;;;;;;;;;;;17.40;46.80;;;;;;5084668;28;43610;-65
2022/12/18 05:48:15;;;;;;;;;;;17.40;46.80;;;;;;5084287;28;43430;-64
2022/12/18 05:50:45;;;;;;;;;;;17.40;46.90;;;;;;5083836;28;43501;-64
2022/12/18 05:53:14;;;;;;;;;;;17.40;46.90;;;;;;5084416;28;44038;-64
2022/12/18 05:55:42;;;;;;;;;;;17.40;46.90;;;;;;5083976;28;43494;-64
2022/12/18 05:58:10;;;;;;;;;;;17.40;46.90;;;;;;5084240;28;43452;-64
2022/12/18 06:00:41;;;;;;;;;;;17.30;46.80;;;;;;5084513;28;43717;-64
2022/12/18 06:03:09;;;;;;;;;;;17.30;46.90;;;;;;5080180;28;43789;-64
2022/12/18 06:05:39;;;;;;;;;;;17.30;46.90;;;;;;5083795;28;43886;-64
2022/12/18 06:08:06;;;;;;;;;;;17.30;46.90;;;;;;5084652;27;43488;-64
2022/12/18 06:10:34;;;;;;;;;;;17.30;46.90;;;;;;5098821;27;43584;-64
2022/12/18 06:13:01;;;;;;;;;;;17.30;46.90;;;;;;5086304;27;43842;-64
2022/12/18 06:15:29;;;;;;;;;;;17.30;46.90;;;;;;5101062;27;43799;-64
2022/12/18 06:17:56;;;;;;;;;;;17.30;46.80;;;;;;5087975;27;43465;-64
2022/12/18 06:20:23;;;;;;;;;;;17.30;46.80;;;;;;5098258;27;43514;-64
2022/12/18 06:22:57;;;;;;;;;;;17.30;46.70;;;;;;5095284;27;43781;-64
2022/12/18 06:25:26;;;;;;;;;;;17.30;46.70;;;;;;5088846;27;43459;-65
2022/12/18 06:27:53;;;;;;;;;;;17.30;46.70;;;;;;5100973;27;43471;-64
2022/12/18 06:30:21;;;;;;;;;;;17.30;46.70;;;;;;5090972;27;43579;-65
2022/12/18 06:32:49;;;;;;;;;;;17.30;46.70;;;;;;5102374;27;44700;-64
2022/12/18 06:35:23;;;;;;;;;;;17.20;46.60;;;;;;5088328;27;43397;-64
2022/12/18 06:37:50;;;;;;;;;;;17.30;46.60;;;;;;5093706;27;43521;-64
2022/12/18 06:40:18;;;;;;;;;;;17.30;46.60;;;;;;5096349;27;43445;-64
2022/12/18 06:42:46;;;;;;;;;;;17.30;46.60;;;;;;5095602;27;43917;-64
2022/12/18 06:45:14;;;;;;;;;;;17.20;46.60;;;;;;5087318;27;43506;-64
2022/12/18 06:47:42;;;;;;;;;;;17.20;46.50;;;;;;5093595;27;43367;-64
2022/12/18 06:50:09;;;;;;;;;;;17.20;46.40;;;;;;5095900;27;43560;-64
2022/12/18 06:52:37;;;;;;;;;;;17.20;46.40;;;;;;5083783;27;44996;-64
2022/12/18 06:55:04;;;;;;;;;;;17.20;46.50;;;;;;5104243;27;43401;-64
2022/12/18 06:57:32;;;;;;;;;;;17.20;46.50;;;;;;5087489;27;43458;-64
2022/12/18 07:00:00;;;;;;;;;;;17.20;46.40;;;;;;5102571;27;43560;-64
2022/12/18 07:02:28;;;;;;;;;;;17.20;46.50;;;;;;5091475;27;44025;-64
2022/12/18 07:04:55;;;;;;;;;;;17.10;46.40;;;;;;5086065;27;43436;-63
2022/12/18 07:07:23;;;;;;;;;;;17.20;46.40;;;;;;5085010;27;43434;-63
2022/12/18 07:09:50;;;;;;;;;;;17.10;46.40;;;;;;5098626;27;43495;-64
2022/12/18 07:12:18;;;;;;;;;;;17.10;46.50;;;;;;5083582;27;43866;-64
2022/12/18 07:14:45;;;;;;;;;;;17.10;46.50;;;;;;5102179;27;44064;-63
2022/12/18 07:17:13;;;;;;;;;;;17.10;46.50;;;;;;5091409;27;44067;-64
2022/12/18 07:19:41;;;;;;;;;;;17.10;46.50;;;;;;5100279;27;43540;-64
2022/12/18 07:22:08;;;;;;;;;;;17.10;46.50;;;;;;5108929;27;43795;-63
2022/12/18 07:24:36;;;;;;;;;;;17.10;46.50;;;;;;5084836;27;43423;-63
2022/12/18 07:27:03;;;;;;;;;;;17.10;46.50;;;;;;5100307;27;43499;-63
2022/12/18 07:29:33;;;;;;;;;;;17.10;46.50;;;;;;5101524;27;43426;-63
2022/12/18 07:32:01;;;;;;;;;;;17.10;46.50;;;;;;5102944;27;44062;-63
2022/12/18 07:34:28;;;;;;;;;;;17.00;46.40;;;;;;5093535;27;43359;-63
2022/12/18 07:36:55;;;;;;;;;;;17.00;46.60;;;;;;5103192;27;43566;-63
2022/12/18 07:39:23;;;;;;;;;;;17.00;46.50;;;;;;5098032;27;43557;-64
2022/12/18 07:44:39;;;;;;;;;;;17.00;46.50;;;;;;5086275;27;43458;-64
2022/12/18 07:47:06;;;;;;;;;;;17.00;46.50;;;;;;5095018;27;43435;-63
2022/12/18 07:49:38;;;;;;;;;;;17.00;46.50;;;;;;5101431;27;43516;-63
2022/12/18 07:52:05;;;;;;;;;;;16.90;46.40;;;;;;5086541;27;44018;-63
2022/12/18 07:54:33;;;;;;;;;;;16.90;46.40;;;;;;5096456;27;43433;-64
2022/12/18 07:57:00;;;;;;;;;;;16.90;46.50;;;;;;5097560;27;43396;-63
2022/12/18 07:59:27;;;;;;;;;;;16.90;46.40;;;;;;5107164;27;43607;-63
2022/12/18 08:01:55;;;;;;;;;;;16.90;46.40;;;;;;5082838;27;43761;-63
2022/12/18 08:04:22;;;;;;;;;;;16.90;46.40;;;;;;5090659;27;43462;-63
2022/12/18 08:06:50;;;;;;;;;;;16.90;46.40;;;;;;5086594;27;43417;-63
2022/12/18 08:09:18;;;;;;;;;;;16.90;46.40;;;;;;5073589;27;43501;-63
2022/12/18 08:11:45;;;;;;;;;;;16.90;46.40;;;;;;5068275;28;44291;-63
2022/12/18 08:14:14;;;;;;;;;;;16.90;46.40;;;;;;5081658;27;43521;-63
2022/12/18 08:16:41;;;;;;;;;;;16.80;46.40;;;;;;5081042;27;43378;-65
2022/12/18 08:19:09;;;;;;;;;;;16.80;46.40;;;;;;5068420;27;43541;-62
2022/12/18 08:21:36;;;;;;;;;;;16.80;46.80;;;;;;5077177;27;44031;-62
2022/12/18 08:24:04;;;;;;;;;;;16.80;46.80;;;;;;5069398;27;43445;-62
2022/12/18 08:26:31;;;;;;;;;;;16.90;46.60;;;;;;5081826;28;43398;-62
2022/12/18 08:29:00;;;;;;;;;;;16.90;46.40;;;;;;5081217;28;43644;-62
2022/12/18 08:31:28;;;;;;;;;;;16.90;46.30;;;;;;5068688;28;43699;-63
2022/12/18 08:33:57;;;;;;;;;;;17.00;46.50;;;;;;5065136;27;43469;-63
2022/12/18 08:36:24;;;;;;;;;;;17.00;46.40;;;;;;5081973;28;43457;-62
2022/12/18 08:38:53;;;;;;;;;;;17.10;46.30;;;;;;5066942;28;43467;-61
2022/12/18 08:41:20;;;;;;;;;;;17.20;46.20;;;;;;5078298;28;44032;-64
2022/12/18 08:46:41;;;;;;;;;;;17.30;46.00;;;;;;5076938;28;43411;-63
2022/12/18 08:49:09;;;;;;;;;;;17.50;45.90;;;;;;5076823;27;43570;-62
2022/12/18 08:51:37;;;;;;;;;;;17.60;45.60;;;;;;5068248;28;44031;-61
2022/12/18 08:54:05;;;;;;;;;;;17.60;45.60;;;;;;5086829;27;43454;-63
2022/12/18 08:56:33;;;;;;;;;;;17.80;45.60;;;;;;5088901;27;43409;-65
2022/12/18 08:59:01;;;;;;;;;;;17.80;45.60;;;;;;5083747;27;43636;-62
2022/12/18 09:01:28;;;;;;;;;;;17.80;45.20;;;;;;5069506;28;43772;-61
2022/12/18 09:03:56;;;;;;;;;;;17.90;45.20;;;;;;5091760;27;44121;-62
2022/12/18 09:06:23;;;;;;;;;;;18.00;45.20;;;;;;5083359;27;43491;-61
2022/12/18 09:08:51;;;;;;;;;;;18.10;45.30;;;;;;5098293;27;43579;-60
2022/12/18 09:11:20;;;;;;;;;;;18.20;44.90;;;;;;5092305;27;44126;-60
2022/12/18 09:13:48;;;;;;;;;;;18.30;44.80;;;;;;5084289;27;43388;-60
2022/12/18 09:16:15;;;;;;;;;;;18.40;44.70;;;;;;5097986;27;43432;-60
2022/12/18 09:18:43;;;;;;;;;;;18.50;44.50;;;;;;5088065;27;43478;-60
2022/12/18 09:21:15;;;;;;;;;;;18.70;45.30;;;;;;5099957;27;43782;-62
2022/12/18 09:23:42;;;;;;;;;;;18.80;44.60;;;;;;5104966;27;43488;-61
2022/12/18 09:26:10;;;;;;;;;;;19.00;44.80;;;;;;5099406;27;43417;-63
2022/12/18 09:28:37;;;;;;;;;;;19.10;44.50;;;;;;5087568;27;43991;-63
2022/12/18 09:31:07;;;;;;;;;;;19.30;44.50;;;;;;5094996;27;43769;-61
2022/12/18 09:33:35;;;;;;;;;;;19.40;44.20;;;;;;5093378;27;43448;-62
2022/12/18 09:36:04;;;;;;;;;;;19.60;44.00;;;;;;5093805;27;43447;-63
2022/12/18 09:38:32;;;;;;;;;;;19.70;43.80;;;;;;5087665;27;43638;-61
2022/12/18 09:41:02;;;;;;;;;;;19.80;43.80;;;;;;5098438;27;44983;-61
2022/12/18 09:43:35;;;;;;;;;;;20.00;43.60;;;;;;5095368;27;43497;-62
2022/12/18 09:46:18;;;;;;;;;;;20.10;43.40;;;;;;5090172;27;43425;-62
2022/12/18 09:48:49;;;;;;;;;;;20.20;43.20;;;;;;5088774;27;43545;-62
2022/12/18 09:51:23;;;;;;;;;;;20.30;43.20;;;;;;5094915;27;43965;-62
2022/12/18 09:53:52;;;;;;;;;;;20.40;43.20;;;;;;5099265;27;43463;-62
2022/12/18 09:56:22;;;;;;;;;;;20.50;43.00;;;;;;5100125;27;43409;-63
2022/12/18 09:58:55;;;;;;;;;;;20.60;43.10;;;;;;5088720;27;43525;-63
2022/12/18 10:01:22;;;;;;;;;;;20.70;42.90;;;;;;5095840;27;43796;-63
2022/12/18 10:03:51;;;;;;;;;;;20.80;42.70;;;;;;5087950;27;43921;-62
2022/12/18 10:06:19;;;;;;;;;;;20.80;42.60;;;;;;5103740;27;43447;-64
2022/12/18 10:08:51;;;;;;;;;;;20.90;42.60;;;;;;5102901;27;43548;-65
2022/12/18 10:11:18;;;;;;;;;;;20.90;43.80;;;;;;5103574;27;43988;-64
2022/12/18 10:13:49;;;;;;;;;;;20.90;42.60;;;;;;5088157;27;43510;-66
2022/12/18 10:16:19;;;;;;;;;;;20.90;42.50;;;;;;5104362;27;43496;-65
2022/12/18 10:19:05;;;;;;;;;;;20.90;42.60;;;;;;5098986;27;43395;-64
2022/12/18 10:21:36;;;;;;;;;;;20.90;42.70;;;;;;5100179;27;43790;-64
2022/12/18 10:24:13;;;;;;;;;;;20.90;42.70;;;;;;5087573;27;44151;-64
2022/12/18 10:26:41;;;;;;;;;;;20.90;42.70;;;;;;5104214;27;43453;-63
2022/12/18 10:29:11;;;;;;;;;;;20.90;42.60;;;;;;5103372;27;43427;-63
2022/12/18 10:31:39;;;;;;;;;;;20.90;42.70;;;;;;5099881;27;43919;-63
2022/12/18 10:34:10;;;;;;;;;;;20.90;42.80;;;;;;5089866;27;43428;-63
2022/12/18 10:36:38;;;;;;;;;;;20.90;42.80;;;;;;5098321;27;43441;-65
2022/12/18 10:39:19;;;;;;;;;;;20.90;42.80;;;;;;5081929;27;43680;-64
2022/12/18 10:41:47;;;;;;;;;;;21.00;42.70;;;;;;5090228;27;43792;-64
2022/12/18 10:44:21;;;;;;;;;;;21.00;42.60;;;;;;5097119;27;43474;-64
2022/12/18 10:46:49;;;;;;;;;;;21.00;42.50;;;;;;5103568;27;43419;-64
2022/12/18 10:49:27;;;;;;;;;;;21.00;42.70;;;;;;5091208;27;43443;-64
2022/12/18 10:52:11;;;;;;;;;;;21.00;42.70;;;;;;5091427;27;44658;-64
2022/12/18 10:54:38;;;;;;;;;;;21.00;42.70;;;;;;5092269;27;43432;-63
2022/12/18 10:57:30;;;;;;;;;;;21.00;42.80;;;;;;5098982;27;43467;-63
2022/12/18 10:59:59;;;;;;;;;;;21.00;42.60;;;;;;5088117;27;43459;-63
2022/12/18 11:02:27;;;;;;;;;;;21.00;42.70;;;;;;5103413;27;43719;-63
2022/12/18 11:04:54;;;;;;;;;;;21.00;42.80;;;;;;5091283;27;43501;-64
2022/12/18 11:07:22;;;;;;;;;;;21.10;42.80;;;;;;5090437;27;43455;-64
2022/12/18 11:09:59;;;;;;;;;;;21.10;42.80;;;;;;5071263;28;43424;-62
2022/12/18 11:12:28;;;;;;;;;;;21.20;42.90;;;;;;5072302;28;43867;-62
2022/12/18 11:14:59;;;;;;;;;;;21.20;42.90;;;;;;5080679;27;43390;-62
2022/12/18 11:17:31;;;;;;;;;;;21.20;42.90;;;;;;5074338;28;43479;-63
2022/12/18 11:20:00;;;;;;;;;;;21.30;42.70;;;;;;5062717;28;43591;-63
2022/12/18 11:22:29;;;;;;;;;;;21.40;42.60;;;;;;5073796;28;44044;-62
2022/12/18 11:24:57;;;;;;;;;;;21.40;42.60;;;;;;5070190;28;43444;-62
2022/12/18 11:27:52;;;;;;;;;;;21.50;42.50;;;;;;5071303;28;43561;-62
2022/12/18 11:30:22;;;;;;;;;;;21.50;42.40;;;;;;5073282;28;44056;-63
2022/12/18 11:32:53;;;;;;;;;;;21.60;42.50;;;;;;5071480;28;45158;-63
2022/12/18 11:35:41;;;;;;;;;;;21.60;42.50;;;;;;5071235;28;43539;-62
2022/12/18 11:38:17;;;;;;;;;;;21.60;42.50;;;;;;5068755;28;43491;-63
2022/12/18 11:40:47;;;;;;;;;;;21.60;42.60;;;;;;5072689;28;43536;-62
2022/12/18 11:43:28;;;;;;;;;;;21.60;42.60;;;;;;5071404;28;44069;-63
2022/12/18 11:46:00;;;;;;;;;;;21.60;42.70;;;;;;5074444;28;43486;-63
2022/12/18 11:48:37;;;;;;;;;;;21.60;42.80;;;;;;5072246;28;44131;-62
2022/12/18 11:51:11;;;;;;;;;;;21.50;42.80;;;;;;5073869;28;43467;-62
2022/12/18 11:53:39;;;;;;;;;;;21.50;42.80;;;;;;5052120;28;44092;-62
2022/12/18 11:56:07;;;;;;;;;;;21.50;42.80;;;;;;5055032;28;43533;-62
2022/12/18 11:58:39;;;;;;;;;;;21.50;42.90;;;;;;5076795;28;43422;-61
2022/12/18 12:01:21;;;;;;;;;;;21.40;42.90;;;;;;5075892;27;43526;-62
2022/12/18 12:04:00;;;;;;;;;;;21.30;42.60;;;;;;5055427;28;43810;-61
2022/12/18 12:06:34;;;;;;;;;;;21.30;42.90;;;;;;5067289;28;43544;-62
2022/12/18 12:09:01;;;;;;;;;;;21.30;43.00;;;;;;5088299;27;43505;-62
2022/12/18 12:11:42;;;;;;;;;;;21.20;43.10;;;;;;5104789;27;43371;-62
2022/12/18 12:14:21;;;;;;;;;;;21.20;43.10;;;;;;5082510;27;44208;-61
2022/12/18 12:16:48;;;;;;;;;;;21.20;43.20;;;;;;5092984;27;43390;-61
2022/12/18 12:19:16;;;;;;;;;;;21.20;43.20;;;;;;5082578;27;43438;-61
2022/12/18 12:21:46;;;;;;;;;;;21.10;43.20;;;;;;5099082;27;43462;-61
2022/12/18 12:24:26;;;;;;;;;;;21.10;43.40;;;;;;5100688;27;44835;-61
2022/12/18 12:27:13;;;;;;;;;;;21.10;43.40;;;;;;5106483;27;43523;-61
2022/12/18 12:30:04;;;;;;;;;;;21.00;43.40;;;;;;5086523;27;43369;-61
2022/12/18 12:32:44;;;;;;;;;;;21.00;43.60;;;;;;5093604;27;43491;-61
2022/12/18 12:35:16;;;;;;;;;;;21.00;43.60;;;;;;5102346;27;43877;-61
2022/12/18 12:37:51;;;;;;;;;;;20.90;43.50;;;;;;5101664;27;43797;-61
2022/12/18 12:40:19;;;;;;;;;;;20.90;43.70;;;;;;5094120;27;43456;-61
2022/12/18 12:43:12;;;;;;;;;;;20.90;43.60;;;;;;5102517;27;43446;-61
2022/12/18 12:45:49;;;;;;;;;;;20.90;43.70;;;;;;5097729;27;43932;-61
2022/12/18 12:48:20;;;;;;;;;;;20.80;43.70;;;;;;5095949;27;43750;-61
2022/12/18 12:50:48;;;;;;;;;;;20.90;43.80;;;;;;5099415;27;43565;-61
2022/12/18 12:53:35;;;;;;;;;;;20.80;43.70;;;;;;5103712;27;43546;-61
2022/12/18 12:56:05;;;;;;;;;;;20.80;43.80;;;;;;5097037;27;45230;-61
2022/12/18 12:58:48;;;;;;;;;;;20.80;43.80;;;;;;5093412;27;43517;-60
2022/12/18 13:01:19;;;;;;;;;;;20.80;43.80;;;;;;5092701;27;43484;-61
2022/12/18 13:03:55;;;;;;;;;;;20.80;43.90;;;;;;5093659;27;43490;-60
2022/12/18 13:06:25;;;;;;;;;;;20.70;43.70;;;;;;5094444;27;44968;-61
2022/12/18 13:08:53;;;;;;;;;;;20.70;43.80;;;;;;5092303;27;43450;-60
2022/12/18 13:14:26;;;;;;;;;;;20.60;43.70;;;;;;5093867;27;43662;-60
2022/12/18 13:17:12;;;;;;;;;;;20.60;43.90;;;;;;5093507;27;43944;-61
2022/12/18 13:19:40;;;;;;;;;;;20.60;43.70;;;;;;5096599;27;43470;-61
2022/12/18 13:22:21;;;;;;;;;;;20.60;43.80;;;;;;5100462;27;43586;-61
2022/12/18 13:24:49;;;;;;;;;;;20.60;43.80;;;;;;5094324;27;43470;-61
2022/12/18 13:27:35;;;;;;;;;;;20.60;43.80;;;;;;5096522;27;44014;-61
2022/12/18 13:30:02;;;;;;;;;;;20.60;43.80;;;;;;5097872;27;43410;-61
2022/12/18 13:32:30;;;;;;;;;;;20.60;43.80;;;;;;5088154;27;43551;-61
2022/12/18 13:35:20;;;;;;;;;;;20.60;43.90;;;;;;5089517;27;43434;-62
2022/12/18 13:37:52;;;;;;;;;;;20.50;43.80;;;;;;5059049;27;44980;-62
2022/12/18 13:40:38;;;;;;;;;;;20.50;43.90;;;;;;5103063;27;43451;-60
2022/12/18 13:43:17;;;;;;;;;;;20.50;43.80;;;;;;5098956;27;43476;-61
2022/12/18 13:45:45;;;;;;;;;;;20.50;43.90;;;;;;5097816;27;43399;-61
2022/12/18 13:48:21;;;;;;;;;;;20.50;43.90;;;;;;5090243;27;43785;-61
2022/12/18 13:50:53;;;;;;;;;;;20.50;43.90;;;;;;5102030;27;43794;-61
2022/12/18 13:53:23;;;;;;;;;;;20.40;43.80;;;;;;5103890;27;43341;-62
2022/12/18 13:55:51;;;;;;;;;;;20.40;43.80;;;;;;5088562;27;43489;-61
2022/12/18 13:58:19;;;;;;;;;;;20.40;43.90;;;;;;5087177;27;43854;-61
2022/12/18 14:00:47;;;;;;;;;;;20.30;44.00;;;;;;5101431;27;43466;-62
2022/12/18 14:03:25;;;;;;;;;;;20.30;44.00;;;;;;5095721;27;44108;-61
2022/12/18 14:05:59;;;;;;;;;;;20.30;44.10;;;;;;5102362;27;43608;-61
2022/12/18 14:08:30;;;;;;;;;;;20.30;44.20;;;;;;5097560;27;44033;-61
2022/12/18 14:10:58;;;;;;;;;;;20.30;44.20;;;;;;5090141;27;43479;-61
2022/12/18 14:13:33;;;;;;;;;;;20.20;44.10;;;;;;5088611;27;43466;-62
2022/12/18 14:16:02;;;;;;;;;;;20.20;44.10;;;;;;5088129;27;43481;-63
2022/12/18 14:18:38;;;;;;;;;;;20.20;44.10;;;;;;5096404;27;43800;-63
2022/12/18 14:21:06;;;;;;;;;;;20.30;44.20;;;;;;5096633;27;43410;-61
2022/12/18 14:23:34;;;;;;;;;;;20.30;44.30;;;;;;5086357;27;43379;-61
2022/12/18 14:26:20;;;;;;;;;;;20.40;44.20;;;;;;5100460;27;43518;-60
2022/12/18 14:28:47;;;;;;;;;;;20.50;44.40;;;;;;5092603;27;44054;-60
2022/12/18 14:31:21;;;;;;;;;;;20.40;44.20;;;;;;5098761;27;43554;-60
2022/12/18 14:33:49;;;;;;;;;;;20.40;44.30;;;;;;5087726;27;43406;-60
2022/12/18 14:36:18;;;;;;;;;;;20.40;44.30;;;;;;5094890;27;43485;-60
2022/12/18 14:38:48;;;;;;;;;;;20.30;44.30;;;;;;5083757;27;44055;-60
2022/12/18 14:41:16;;;;;;;;;;;20.30;44.40;;;;;;5099146;27;43537;-60
2022/12/18 14:43:44;;;;;;;;;;;20.20;44.20;;;;;;5087689;27;43376;-60
2022/12/18 14:46:24;;;;;;;;;;;20.30;44.30;;;;;;5103590;27;43516;-60